Time;durP1;ratioP1;P1;durP2;ratioP2;P2;SDS_P1;SDS_P2;PMS_P1;PMS_P2;Temp;Humidity;BMP_temperature;BMP_pressure;BME280_temperature;BME280_humidity;BME280_pressure;Samples;Min_cycle;Max_cycle;Signal;HPM_P1;HPM_P2
2023/02/04 00:01:02;;;;;;;8.93;3.08;;;;;;;;;;4749616;30;20067;-74
2023/02/04 00:03:33;;;;;;;6.68;2.95;;;;;;;;;;4750599;30;20059;-75
2023/02/04 00:06:03;;;;;;;11.93;3.20;;;;;;;;;;4766649;30;20485;-74
2023/02/04 00:08:33;;;;;;;9.50;3.10;;;;;;;;;;4766169;30;20051;-75
2023/02/04 00:11:04;;;;;;;6.00;3.08;;;;;;;;;;4765888;30;20503;-77
2023/02/04 00:13:35;;;;;;;10.70;3.22;;;;;;;;;;4764949;30;20067;-74
2023/02/04 00:16:05;;;;;;;8.57;3.30;;;;;;;;;;4772955;30;20052;-74
2023/02/04 00:18:36;;;;;;;8.95;2.97;;;;;;;;;;4767619;30;20627;-74
2023/02/04 00:21:06;;;;;;;10.45;2.88;;;;;;;;;;4783282;30;20476;-76
2023/02/04 00:23:37;;;;;;;9.40;2.67;;;;;;;;;;4783324;30;20515;-74
2023/02/04 00:26:08;;;;;;;7.78;3.03;;;;;;;;;;4783013;30;20078;-77
2023/02/04 00:28:38;;;;;;;6.18;2.80;;;;;;;;;;4783354;30;20051;-75
2023/02/04 00:31:09;;;;;;;9.82;3.25;;;;;;;;;;4783577;30;20043;-74
2023/02/04 00:33:42;;;;;;;5.50;3.40;;;;;;;;;;4766895;30;20059;-75
2023/02/04 00:36:12;;;;;;;10.10;3.58;;;;;;;;;;4783366;30;20047;-74
2023/02/04 00:38:42;;;;;;;7.82;3.97;;;;;;;;;;4782864;29;20427;-75
2023/02/04 00:41:14;;;;;;;6.10;3.38;;;;;;;;;;4783366;30;20055;-76
2023/02/04 00:43:46;;;;;;;8.98;3.40;;;;;;;;;;4782952;30;20063;-78
2023/02/04 00:46:17;;;;;;;7.70;3.55;;;;;;;;;;4783503;30;20051;-75
2023/02/04 00:48:46;;;;;;;12.05;3.45;;;;;;;;;;4783578;30;20056;-76
2023/02/04 00:51:18;;;;;;;7.35;3.83;;;;;;;;;;4787092;30;20079;-74
2023/02/04 00:53:49;;;;;;;5.88;2.78;;;;;;;;;;4783483;30;20063;-75
2023/02/04 00:56:19;;;;;;;6.03;3.13;;;;;;;;;;4766246;30;20514;-75
2023/02/04 00:58:50;;;;;;;10.00;3.28;;;;;;;;;;4766061;30;20055;-76
2023/02/04 01:01:21;;;;;;;9.85;3.15;;;;;;;;;;4782943;30;20054;-75
2023/02/04 01:03:52;;;;;;;14.20;2.67;;;;;;;;;;4782591;30;20047;-75
2023/02/04 01:06:24;;;;;;;8.18;2.65;;;;;;;;;;4782197;30;20143;-76
2023/02/04 01:08:56;;;;;;;8.70;3.25;;;;;;;;;;4782943;30;20051;-76
2023/02/04 01:11:29;;;;;;;6.32;2.83;;;;;;;;;;4782141;30;20059;-77
2023/02/04 01:14:00;;;;;;;7.90;3.65;;;;;;;;;;4760773;30;20552;-76
2023/02/04 01:16:32;;;;;;;13.90;4.20;;;;;;;;;;4772544;30;20400;-76
2023/02/04 01:19:03;;;;;;;6.97;3.38;;;;;;;;;;4758238;30;20054;-76
2023/02/04 01:21:33;;;;;;;12.40;3.03;;;;;;;;;;4773183;30;20128;-76
2023/02/04 01:24:05;;;;;;;10.73;3.65;;;;;;;;;;4771923;30;20044;-76
2023/02/04 01:26:54;;;;;;;11.00;3.60;;;;;;;;;;4780110;30;20607;-75
2023/02/04 01:29:25;;;;;;;6.95;3.17;;;;;;;;;;4781914;30;20055;-76
2023/02/04 01:31:55;;;;;;;9.43;4.20;;;;;;;;;;4782484;30;20051;-76
2023/02/04 01:34:25;;;;;;;6.57;3.72;;;;;;;;;;4765053;30;20070;-76
2023/02/04 01:36:55;;;;;;;6.47;3.38;;;;;;;;;;4782203;30;20055;-77
2023/02/04 01:39:26;;;;;;;8.23;3.92;;;;;;;;;;4782370;30;20047;-77
2023/02/04 01:41:56;;;;;;;12.02;4.15;;;;;;;;;;4782869;30;20058;-77
2023/02/04 01:44:28;;;;;;;6.57;3.53;;;;;;;;;;4781704;30;20063;-77
2023/02/04 01:46:59;;;;;;;12.13;4.22;;;;;;;;;;4781818;30;20063;-77
2023/02/04 01:49:29;;;;;;;10.10;3.60;;;;;;;;;;4782277;29;20072;-77
2023/02/04 01:51:59;;;;;;;12.35;3.30;;;;;;;;;;4782401;30;20051;-77
2023/02/04 01:54:31;;;;;;;9.30;3.70;;;;;;;;;;4763449;30;20804;-77
2023/02/04 01:57:04;;;;;;;8.15;3.45;;;;;;;;;;4748246;30;20427;-77
2023/02/04 01:59:34;;;;;;;10.20;3.63;;;;;;;;;;4747386;30;20055;-77
2023/02/04 02:02:39;;;;;;;11.65;3.80;;;;;;;;;;4762729;30;20056;-76
2023/02/04 02:05:14;;;;;;;13.18;3.72;;;;;;;;;;4764268;30;20056;-77
2023/02/04 02:07:45;;;;;;;10.15;3.63;;;;;;;;;;4765868;30;20052;-76
2023/02/04 02:10:17;;;;;;;14.68;3.63;;;;;;;;;;4782498;30;20066;-76
2023/02/04 02:12:49;;;;;;;13.25;3.85;;;;;;;;;;4765424;30;20055;-76
2023/02/04 02:15:21;;;;;;;8.38;3.38;;;;;;;;;;4764834;30;20435;-76
2023/02/04 02:17:53;;;;;;;9.25;3.20;;;;;;;;;;4781773;30;20066;-77
2023/02/04 02:20:26;;;;;;;10.68;3.53;;;;;;;;;;4765445;30;20058;-76
2023/02/04 02:23:18;;;;;;;3.90;2.72;;;;;;;;;;4781731;30;20081;-76
2023/02/04 02:25:50;;;;;;;8.57;3.03;;;;;;;;;;4781371;30;20059;-77
2023/02/04 02:28:24;;;;;;;9.93;3.40;;;;;;;;;;4771399;30;20511;-76
2023/02/04 02:30:54;;;;;;;6.50;2.78;;;;;;;;;;4766428;30;20066;-76
2023/02/04 02:33:25;;;;;;;6.00;2.65;;;;;;;;;;4765559;30;20051;-76
2023/02/04 02:35:56;;;;;;;3.10;2.28;;;;;;;;;;4782167;30;20504;-75
2023/02/04 02:38:26;;;;;;;7.60;2.90;;;;;;;;;;4781821;30;20058;-77
2023/02/04 02:40:57;;;;;;;5.90;1.75;;;;;;;;;;4766380;30;20056;-76
2023/02/04 02:43:29;;;;;;;4.40;2.03;;;;;;;;;;4761393;30;20078;-77
2023/02/04 02:46:01;;;;;;;5.93;2.40;;;;;;;;;;4763996;30;20069;-76
2023/02/04 02:48:32;;;;;;;6.32;2.10;;;;;;;;;;4760976;30;20063;-76
2023/02/04 02:51:03;;;;;;;4.97;2.17;;;;;;;;;;4763581;30;20078;-77
2023/02/04 02:53:33;;;;;;;3.20;1.90;;;;;;;;;;4763986;30;20058;-76
2023/02/04 02:56:06;;;;;;;3.97;1.70;;;;;;;;;;4762476;30;20424;-76
2023/02/04 02:58:37;;;;;;;3.83;1.73;;;;;;;;;;4761389;30;20063;-75
2023/02/04 03:01:08;;;;;;;7.90;1.60;;;;;;;;;;4765552;30;20513;-76
2023/02/04 03:03:48;;;;;;;12.77;2.20;;;;;;;;;;4765810;30;20070;-77
2023/02/04 03:06:24;;;;;;;3.55;1.88;;;;;;;;;;4765026;30;20071;-76
2023/02/04 03:08:56;;;;;;;2.90;2.40;;;;;;;;;;4766816;30;20055;-76
2023/02/04 03:11:28;;;;;;;3.22;1.83;;;;;;;;;;4767520;30;20059;-76
2023/02/04 03:14:02;;;;;;;9.48;2.70;;;;;;;;;;4765669;30;20060;-77
2023/02/04 03:16:36;;;;;;;7.05;2.28;;;;;;;;;;4765614;30;20562;-76
2023/02/04 03:19:09;;;;;;;7.00;3.40;;;;;;;;;;4765909;30;20392;-76
2023/02/04 03:21:40;;;;;;;5.13;2.70;;;;;;;;;;4755192;30;20055;-76
2023/02/04 03:24:10;;;;;;;6.43;3.05;;;;;;;;;;4758004;30;20052;-76
2023/02/04 03:26:41;;;;;;;4.28;3.53;;;;;;;;;;4749610;30;20056;-76
2023/02/04 03:29:12;;;;;;;10.32;3.65;;;;;;;;;;4749344;30;20514;-76
2023/02/04 03:31:42;;;;;;;10.27;4.00;;;;;;;;;;4751908;30;20056;-76
2023/02/04 03:34:12;;;;;;;11.15;3.55;;;;;;;;;;4767259;30;20039;-76
2023/02/04 03:36:45;;;;;;;8.35;4.20;;;;;;;;;;4766696;30;20388;-76
2023/02/04 03:39:16;;;;;;;9.73;3.22;;;;;;;;;;4779084;30;20055;-77
2023/02/04 03:41:46;;;;;;;8.32;3.45;;;;;;;;;;4772547;30;20063;-76
2023/02/04 03:44:17;;;;;;;5.90;3.03;;;;;;;;;;4777863;30;20067;-76
2023/02/04 03:46:48;;;;;;;4.22;2.33;;;;;;;;;;4787640;30;20066;-76
2023/02/04 03:49:21;;;;;;;8.18;2.90;;;;;;;;;;4804993;30;20054;-76
2023/02/04 03:51:51;;;;;;;6.78;2.92;;;;;;;;;;4801949;30;20043;-76
2023/02/04 03:54:23;;;;;;;5.35;3.00;;;;;;;;;;4803004;30;20079;-77
2023/02/04 03:56:53;;;;;;;5.50;3.17;;;;;;;;;;4802702;30;20039;-78
2023/02/04 03:59:24;;;;;;;5.22;3.30;;;;;;;;;;4801409;30;20047;-76
2023/02/04 04:01:54;;;;;;;9.23;3.63;;;;;;;;;;4772151;30;20051;-77
2023/02/04 04:04:25;;;;;;;6.70;3.88;;;;;;;;;;4767262;30;20062;-76
2023/02/04 04:06:56;;;;;;;6.95;3.80;;;;;;;;;;4784488;30;20056;-76
2023/02/04 04:09:28;;;;;;;6.05;3.85;;;;;;;;;;4769392;30;20058;-75
2023/02/04 04:12:00;;;;;;;8.68;3.60;;;;;;;;;;4783656;29;20047;-76
2023/02/04 04:14:30;;;;;;;6.57;3.85;;;;;;;;;;4784585;30;20071;-75
2023/02/04 04:17:01;;;;;;;5.13;2.97;;;;;;;;;;4784285;30;20070;-76
2023/02/04 04:19:32;;;;;;;11.10;3.05;;;;;;;;;;4783659;30;20062;-76
2023/02/04 04:22:02;;;;;;;3.90;2.42;;;;;;;;;;4783568;30;20055;-76
2023/02/04 04:24:32;;;;;;;3.58;2.55;;;;;;;;;;4784286;30;20617;-76
2023/02/04 04:27:03;;;;;;;5.72;2.38;;;;;;;;;;4784216;30;20055;-76
2023/02/04 04:29:33;;;;;;;4.15;2.42;;;;;;;;;;4783855;30;20531;-75
2023/02/04 04:32:04;;;;;;;8.32;2.30;;;;;;;;;;4784310;30;20526;-76
2023/02/04 04:34:36;;;;;;;7.28;2.55;;;;;;;;;;4783676;30;20400;-75
2023/02/04 04:37:06;;;;;;;4.28;2.15;;;;;;;;;;4783525;30;20066;-76
2023/02/04 04:39:37;;;;;;;2.35;1.95;;;;;;;;;;4783735;30;20059;-75
2023/02/04 04:42:07;;;;;;;7.68;2.00;;;;;;;;;;4783573;30;20055;-76
2023/02/04 04:44:38;;;;;;;3.78;2.50;;;;;;;;;;4783331;30;20419;-75
2023/02/04 04:47:09;;;;;;;4.75;1.80;;;;;;;;;;4783383;30;20054;-75
2023/02/04 04:49:40;;;;;;;2.53;1.88;;;;;;;;;;4783642;30;20055;-76
2023/02/04 04:52:10;;;;;;;4.88;1.98;;;;;;;;;;4767720;30;20055;-75
2023/02/04 04:54:40;;;;;;;3.25;2.03;;;;;;;;;;4783277;30;20051;-76
2023/02/04 04:57:10;;;;;;;4.30;1.75;;;;;;;;;;4783624;30;20765;-75
2023/02/04 04:59:42;;;;;;;2.97;1.80;;;;;;;;;;4767635;30;20055;-76
2023/02/04 05:02:12;;;;;;;2.03;1.73;;;;;;;;;;4782784;30;20051;-75
2023/02/04 05:04:43;;;;;;;5.53;2.00;;;;;;;;;;4767046;30;20679;-76
2023/02/04 05:07:13;;;;;;;7.00;2.25;;;;;;;;;;4783065;30;20059;-75
2023/02/04 05:09:45;;;;;;;10.27;2.15;;;;;;;;;;4782766;30;20055;-75
2023/02/04 05:12:15;;;;;;;7.85;2.40;;;;;;;;;;4783331;30;20483;-76
2023/02/04 05:14:45;;;;;;;4.80;2.13;;;;;;;;;;4782550;30;20078;-76
2023/02/04 05:17:15;;;;;;;3.30;2.10;;;;;;;;;;4782603;30;20059;-76
2023/02/04 05:19:47;;;;;;;3.88;2.50;;;;;;;;;;4783386;30;20058;-75
2023/02/04 05:22:17;;;;;;;5.32;2.85;;;;;;;;;;4782379;30;20419;-76
2023/02/04 05:24:47;;;;;;;4.07;2.53;;;;;;;;;;4781886;30;20062;-76
2023/02/04 05:27:18;;;;;;;4.97;2.50;;;;;;;;;;4782776;30;20078;-76
2023/02/04 05:29:49;;;;;;;8.68;2.58;;;;;;;;;;4782357;30;20055;-75
2023/02/04 05:32:19;;;;;;;6.35;2.92;;;;;;;;;;4782485;30;20082;-75
2023/02/04 05:34:50;;;;;;;10.52;2.65;;;;;;;;;;4782617;30;20055;-77
2023/02/04 05:37:21;;;;;;;5.47;2.85;;;;;;;;;;4782416;30;20415;-76
2023/02/04 05:39:51;;;;;;;5.70;2.83;;;;;;;;;;4782473;30;20062;-76
2023/02/04 05:42:21;;;;;;;5.10;2.65;;;;;;;;;;4782624;30;20047;-76
2023/02/04 05:44:53;;;;;;;6.63;3.20;;;;;;;;;;4782849;30;20059;-77
2023/02/04 05:47:24;;;;;;;6.35;2.70;;;;;;;;;;4782081;30;20074;-76
2023/02/04 05:49:54;;;;;;;4.70;2.63;;;;;;;;;;4782679;30;20051;-76
2023/02/04 05:52:24;;;;;;;3.28;2.53;;;;;;;;;;4765661;30;20059;-76
2023/02/04 05:54:54;;;;;;;7.32;2.42;;;;;;;;;;4782139;30;20058;-76
2023/02/04 05:57:25;;;;;;;7.25;2.65;;;;;;;;;;4765579;30;20055;-76
2023/02/04 05:59:56;;;;;;;7.85;2.65;;;;;;;;;;4781854;30;20044;-76
2023/02/04 06:02:26;;;;;;;5.22;2.63;;;;;;;;;;4782291;30;20059;-76
2023/02/04 06:04:58;;;;;;;5.22;2.50;;;;;;;;;;4782076;30;20417;-76
2023/02/04 06:07:29;;;;;;;8.43;2.58;;;;;;;;;;4766714;30;20058;-75
2023/02/04 06:09:58;;;;;;;7.32;2.90;;;;;;;;;;4781941;30;20051;-77
2023/02/04 06:12:29;;;;;;;6.20;2.58;;;;;;;;;;4782214;30;20058;-76
2023/02/04 06:15:00;;;;;;;5.35;2.80;;;;;;;;;;4765306;30;20066;-76
2023/02/04 06:17:30;;;;;;;4.32;2.33;;;;;;;;;;4781758;30;20055;-76
2023/02/04 06:20:01;;;;;;;5.32;2.60;;;;;;;;;;4782049;30;20051;-76
2023/02/04 06:22:31;;;;;;;10.23;2.72;;;;;;;;;;4782082;30;20066;-76
2023/02/04 06:25:03;;;;;;;6.72;2.58;;;;;;;;;;4782021;30;20059;-76
2023/02/04 06:27:34;;;;;;;4.43;2.35;;;;;;;;;;4781503;30;20059;-76
2023/02/04 06:30:05;;;;;;;6.28;2.67;;;;;;;;;;4781669;30;20047;-76
2023/02/04 06:32:36;;;;;;;7.05;2.97;;;;;;;;;;4781773;30;20808;-76
2023/02/04 06:35:07;;;;;;;3.85;2.80;;;;;;;;;;4782640;29;20047;-77
2023/02/04 06:37:39;;;;;;;8.88;2.60;;;;;;;;;;4785146;30;20047;-77
2023/02/04 06:40:09;;;;;;;7.90;2.60;;;;;;;;;;4785225;30;20488;-76
2023/02/04 06:42:40;;;;;;;6.25;2.60;;;;;;;;;;4785542;30;20419;-76
2023/02/04 06:45:11;;;;;;;6.53;2.30;;;;;;;;;;4768122;30;20094;-76
2023/02/04 06:47:42;;;;;;;6.70;2.00;;;;;;;;;;4785505;30;20056;-77
2023/02/04 06:50:17;;;;;;;8.20;2.03;;;;;;;;;;4785171;30;20062;-75
2023/02/04 06:52:48;;;;;;;4.72;1.98;;;;;;;;;;4785229;30;20047;-76
2023/02/04 06:55:19;;;;;;;6.70;1.75;;;;;;;;;;4785167;30;20514;-76
2023/02/04 06:57:50;;;;;;;5.35;1.75;;;;;;;;;;4785071;30;20051;-76
2023/02/04 07:00:20;;;;;;;5.45;1.80;;;;;;;;;;4785109;30;20058;-76
2023/02/04 07:02:51;;;;;;;5.88;1.92;;;;;;;;;;4784968;30;20415;-74
2023/02/04 07:05:25;;;;;;;4.97;1.73;;;;;;;;;;4785278;30;20063;-76
2023/02/04 07:07:56;;;;;;;8.43;1.80;;;;;;;;;;4785000;30;20059;-76
2023/02/04 07:10:27;;;;;;;4.60;1.42;;;;;;;;;;4784953;30;20051;-76
2023/02/04 07:12:57;;;;;;;9.90;1.55;;;;;;;;;;4785099;30;20059;-76
2023/02/04 07:15:27;;;;;;;5.07;1.40;;;;;;;;;;4785103;30;20460;-76
2023/02/04 07:17:57;;;;;;;5.45;2.25;;;;;;;;;;4784673;30;20404;-76
2023/02/04 07:20:29;;;;;;;4.57;1.63;;;;;;;;;;4785511;30;20051;-75
2023/02/04 07:23:00;;;;;;;7.22;2.00;;;;;;;;;;4784002;30;20059;-77
2023/02/04 07:25:30;;;;;;;5.55;1.83;;;;;;;;;;4784542;30;20062;-77
2023/02/04 07:28:02;;;;;;;6.57;1.90;;;;;;;;;;4768547;30;20059;-77
2023/02/04 07:30:33;;;;;;;3.28;1.60;;;;;;;;;;4784375;30;20055;-77
2023/02/04 07:33:04;;;;;;;2.45;1.90;;;;;;;;;;4784460;30;20051;-76
2023/02/04 07:35:34;;;;;;;6.82;1.83;;;;;;;;;;4768402;30;20407;-76
2023/02/04 07:38:06;;;;;;;7.68;1.90;;;;;;;;;;4784613;30;20526;-76
2023/02/04 07:40:38;;;;;;;2.45;1.83;;;;;;;;;;4783249;30;20447;-76
2023/02/04 07:43:09;;;;;;;11.18;2.00;;;;;;;;;;4784671;30;20047;-76
2023/02/04 07:45:39;;;;;;;10.02;2.00;;;;;;;;;;4768226;30;20503;-76
2023/02/04 07:48:10;;;;;;;5.80;1.85;;;;;;;;;;4768286;30;20059;-76
2023/02/04 07:50:40;;;;;;;12.23;2.58;;;;;;;;;;4784335;30;20055;-76
2023/02/04 07:53:10;;;;;;;3.03;1.70;;;;;;;;;;4784356;30;20055;-76
2023/02/04 07:55:41;;;;;;;6.68;1.85;;;;;;;;;;4784534;30;20546;-77
2023/02/04 07:58:11;;;;;;;7.05;2.10;;;;;;;;;;4784222;30;20059;-76
2023/02/04 08:00:41;;;;;;;4.82;2.10;;;;;;;;;;4783989;30;20058;-76
2023/02/04 08:03:12;;;;;;;4.18;1.90;;;;;;;;;;4784096;30;20056;-75
2023/02/04 08:05:42;;;;;;;6.20;2.30;;;;;;;;;;4784074;30;20055;-77
2023/02/04 08:08:12;;;;;;;4.63;1.95;;;;;;;;;;4783979;30;20055;-76
2023/02/04 08:10:43;;;;;;;6.05;2.10;;;;;;;;;;4784097;30;20231;-76
2023/02/04 08:13:14;;;;;;;8.07;3.47;;;;;;;;;;4783859;30;20528;-76
2023/02/04 08:15:44;;;;;;;8.85;2.28;;;;;;;;;;4784001;30;20055;-76
2023/02/04 08:18:14;;;;;;;5.03;2.95;;;;;;;;;;4784419;30;20067;-76
2023/02/04 08:20:45;;;;;;;8.25;2.20;;;;;;;;;;4768134;30;20062;-76
2023/02/04 08:23:18;;;;;;;11.50;2.35;;;;;;;;;;4783384;30;20059;-77
2023/02/04 08:25:48;;;;;;;3.90;2.38;;;;;;;;;;4783278;30;20058;-77
2023/02/04 08:28:18;;;;;;;4.25;2.08;;;;;;;;;;4783305;30;20059;-76
2023/02/04 08:30:49;;;;;;;4.38;2.28;;;;;;;;;;4783642;30;20070;-76
2023/02/04 08:33:21;;;;;;;4.57;2.28;;;;;;;;;;4768104;30;20534;-76
2023/02/04 08:35:51;;;;;;;10.48;2.70;;;;;;;;;;4783390;30;20054;-76
2023/02/04 08:38:23;;;;;;;6.72;2.28;;;;;;;;;;4766674;30;20070;-76
2023/02/04 08:40:53;;;;;;;11.38;2.55;;;;;;;;;;4767942;30;20066;-76
2023/02/04 08:43:24;;;;;;;6.22;2.13;;;;;;;;;;4781916;30;20115;-75
2023/02/04 08:45:54;;;;;;;9.38;2.30;;;;;;;;;;4783202;30;20058;-75
2023/02/04 08:48:24;;;;;;;6.32;2.17;;;;;;;;;;4782881;30;20051;-76
2023/02/04 08:50:54;;;;;;;7.90;2.15;;;;;;;;;;4783488;30;20492;-76
2023/02/04 08:53:24;;;;;;;10.05;2.15;;;;;;;;;;4783651;30;20055;-77
2023/02/04 08:55:55;;;;;;;4.63;2.00;;;;;;;;;;4783320;30;20043;-76
2023/02/04 08:58:26;;;;;;;9.25;2.45;;;;;;;;;;4782135;29;20059;-77
2023/02/04 09:00:56;;;;;;;8.40;2.45;;;;;;;;;;4767118;30;20062;-77
2023/02/04 09:03:26;;;;;;;4.15;2.42;;;;;;;;;;4783326;30;20051;-76
2023/02/04 09:05:55;;;;;;;6.00;2.45;;;;;;;;;;4783153;30;20059;-77
2023/02/04 09:08:28;;;;;;;4.93;2.22;;;;;;;;;;4782922;30;20052;-77
2023/02/04 09:10:58;;;;;;;11.40;2.60;;;;;;;;;;4783001;30;20055;-76
2023/02/04 09:13:28;;;;;;;9.60;2.38;;;;;;;;;;4782664;30;20059;-76
2023/02/04 09:15:58;;;;;;;8.68;5.38;;;;;;;;;;4782751;30;20051;-78
2023/02/04 09:18:31;;;;;;;7.53;3.03;;;;;;;;;;4767523;30;20526;-76
2023/02/04 09:21:02;;;;;;;3.75;2.72;;;;;;;;;;4782656;30;20527;-76
2023/02/04 09:23:32;;;;;;;8.20;2.63;;;;;;;;;;4782551;30;20420;-76
2023/02/04 09:26:03;;;;;;;12.60;2.90;;;;;;;;;;4766578;30;20530;-76
2023/02/04 09:28:33;;;;;;;6.57;2.50;;;;;;;;;;4782842;30;20051;-76
2023/02/04 09:31:07;;;;;;;4.97;2.65;;;;;;;;;;4782513;30;20055;-76
2023/02/04 09:33:37;;;;;;;4.45;2.60;;;;;;;;;;4782507;30;20416;-76
2023/02/04 09:36:07;;;;;;;4.38;2.70;;;;;;;;;;4782950;30;20051;-77
2023/02/04 09:38:38;;;;;;;14.70;2.80;;;;;;;;;;4782665;30;20043;-77
2023/02/04 09:41:12;;;;;;;6.57;3.00;;;;;;;;;;4782815;30;20073;-76
2023/02/04 09:43:44;;;;;;;8.55;2.58;;;;;;;;;;4782129;30;20067;-76
2023/02/04 09:46:22;;;;;;;8.23;2.70;;;;;;;;;;4782351;30;20055;-77
2023/02/04 09:48:52;;;;;;;9.65;2.67;;;;;;;;;;4781884;30;20055;-77
2023/02/04 09:51:29;;;;;;;7.30;3.00;;;;;;;;;;4782156;30;20059;-77
2023/02/04 09:54:10;;;;;;;6.18;2.33;;;;;;;;;;4781971;30;20055;-76
2023/02/04 09:56:41;;;;;;;5.60;2.30;;;;;;;;;;4782307;30;20055;-77
2023/02/04 09:59:24;;;;;;;5.70;2.40;;;;;;;;;;4764968;30;20515;-78
2023/02/04 10:02:01;;;;;;;8.20;2.70;;;;;;;;;;4782479;30;20055;-76
2023/02/04 10:04:31;;;;;;;7.63;2.42;;;;;;;;;;4782780;30;20058;-76
2023/02/04 10:07:02;;;;;;;9.68;2.50;;;;;;;;;;4781973;30;20055;-77
2023/02/04 10:09:33;;;;;;;10.05;2.70;;;;;;;;;;4781500;29;20056;-76
2023/02/04 10:12:05;;;;;;;10.80;3.00;;;;;;;;;;4781858;30;20492;-76
2023/02/04 10:14:36;;;;;;;12.43;2.53;;;;;;;;;;4782471;30;20058;-76
2023/02/04 10:17:09;;;;;;;10.90;2.20;;;;;;;;;;4781899;30;20508;-78
2023/02/04 10:19:40;;;;;;;6.03;2.10;;;;;;;;;;4781568;30;20065;-75
2023/02/04 10:22:17;;;;;;;10.60;2.20;;;;;;;;;;4781428;30;20051;-76
2023/02/04 10:24:48;;;;;;;7.45;2.35;;;;;;;;;;4765747;30;20046;-75
2023/02/04 10:27:17;;;;;;;8.93;3.53;;;;;;;;;;4781942;30;20492;-77
2023/02/04 10:29:56;;;;;;;3.58;1.83;;;;;;;;;;4782400;30;20055;-78
2023/02/04 10:32:32;;;;;;;4.53;2.17;;;;;;;;;;4781803;30;20583;-77
2023/02/04 10:35:03;;;;;;;5.25;2.13;;;;;;;;;;4781946;30;20055;-76
2023/02/04 10:37:33;;;;;;;6.22;2.38;;;;;;;;;;4780507;30;20534;-76
2023/02/04 10:40:04;;;;;;;5.80;1.90;;;;;;;;;;4780901;30;20051;-75
2023/02/04 10:42:34;;;;;;;6.20;1.67;;;;;;;;;;4780597;30;20051;-76
2023/02/04 10:45:05;;;;;;;5.65;2.10;;;;;;;;;;4780131;30;20051;-77
2023/02/04 10:47:35;;;;;;;10.13;2.17;;;;;;;;;;4765265;30;20055;-75
2023/02/04 10:50:17;;;;;;;7.30;2.10;;;;;;;;;;4780498;30;20052;-77
2023/02/04 10:55:50;;;;;;;7.75;1.73;;;;;;;;;;4781705;30;20499;-76
2023/02/04 10:58:27;;;;;;;11.40;1.77;;;;;;;;;;4781194;30;20056;-76
2023/02/04 11:00:58;;;;;;;5.68;1.98;;;;;;;;;;4765828;30;20056;-76
2023/02/04 11:03:30;;;;;;;8.40;1.60;;;;;;;;;;4781506;30;20408;-76
2023/02/04 11:06:02;;;;;;;7.72;1.95;;;;;;;;;;4781676;30;20055;-77
2023/02/04 11:08:36;;;;;;;5.43;1.88;;;;;;;;;;4781752;30;20059;-77
2023/02/04 11:11:17;;;;;;;10.48;1.58;;;;;;;;;;4781876;30;20055;-76
2023/02/04 11:13:50;;;;;;;9.68;2.00;;;;;;;;;;4781178;30;20047;-77
2023/02/04 11:16:31;;;;;;;6.00;1.67;;;;;;;;;;4766387;30;20652;-76
2023/02/04 11:19:11;;;;;;;14.38;2.00;;;;;;;;;;4781495;30;20811;-77
2023/02/04 11:21:45;;;;;;;8.25;1.92;;;;;;;;;;4781928;29;20085;-76
2023/02/04 11:24:15;;;;;;;4.15;1.50;;;;;;;;;;4784551;30;20058;-77
2023/02/04 11:26:49;;;;;;;4.68;1.60;;;;;;;;;;4784593;30;20060;-76
2023/02/04 11:29:37;;;;;;;7.28;1.50;;;;;;;;;;4784573;30;20051;-77
2023/02/04 11:32:30;;;;;;;6.68;1.27;;;;;;;;;;4783326;30;20055;-76
2023/02/04 11:35:21;;;;;;;5.82;1.73;;;;;;;;;;4776074;30;20063;-76
2023/02/04 11:37:52;;;;;;;6.28;2.08;;;;;;;;;;4785240;30;20357;-76
2023/02/04 11:40:35;;;;;;;7.40;1.42;;;;;;;;;;4784846;30;20055;-76
2023/02/04 11:43:15;;;;;;;10.20;1.85;;;;;;;;;;4784591;30;20055;-76
2023/02/04 11:45:46;;;;;;;12.75;2.47;;;;;;;;;;4767962;30;20055;-77
2023/02/04 11:48:20;;;;;;;6.50;1.80;;;;;;;;;;4784229;30;20512;-75
2023/02/04 11:51:01;;;;;;;7.93;1.50;;;;;;;;;;4784078;30;20055;-77
2023/02/04 11:53:33;;;;;;;7.65;1.70;;;;;;;;;;4784492;30;20055;-76
2023/02/04 11:56:03;;;;;;;6.32;1.40;;;;;;;;;;4768740;30;20483;-76
2023/02/04 11:58:34;;;;;;;8.57;1.30;;;;;;;;;;4784610;30;20059;-76
2023/02/04 12:01:07;;;;;;;5.55;1.42;;;;;;;;;;4784045;30;20512;-77
2023/02/04 12:03:47;;;;;;;3.42;1.25;;;;;;;;;;4784531;30;20062;-77
2023/02/04 12:06:32;;;;;;;4.68;1.25;;;;;;;;;;4784279;30;20051;-76
2023/02/04 12:09:25;;;;;;;5.60;1.30;;;;;;;;;;4784285;30;20059;-77
2023/02/04 12:12:01;;;;;;;6.07;1.20;;;;;;;;;;4783397;30;20067;-78
2023/02/04 12:14:38;;;;;;;6.70;1.58;;;;;;;;;;4784422;30;20054;-78
2023/02/04 12:17:17;;;;;;;6.55;1.15;;;;;;;;;;4784084;30;20415;-78
2023/02/04 12:19:48;;;;;;;6.68;1.42;;;;;;;;;;4784031;30;20401;-76
2023/02/04 12:22:18;;;;;;;6.47;1.17;;;;;;;;;;4784057;30;20416;-78
2023/02/04 12:24:51;;;;;;;4.75;1.20;;;;;;;;;;4783479;30;20059;-78
2023/02/04 12:27:21;;;;;;;4.60;0.90;;;;;;;;;;4783983;30;20040;-77
2023/02/04 12:29:52;;;;;;;6.15;1.00;;;;;;;;;;4784047;30;20082;-77
2023/02/04 12:32:23;;;;;;;8.82;1.00;;;;;;;;;;4783226;29;20055;-79
2023/02/04 12:34:54;;;;;;;8.65;1.38;;;;;;;;;;4783744;30;20408;-77
2023/02/04 12:37:23;;;;;;;4.53;0.93;;;;;;;;;;4783300;30;20431;-76
2023/02/04 12:39:53;;;;;;;7.07;0.90;;;;;;;;;;4783642;30;20051;-77
2023/02/04 12:42:23;;;;;;;3.58;1.00;;;;;;;;;;4781839;30;20078;-76
2023/02/04 12:44:55;;;;;;;6.00;0.90;;;;;;;;;;4783492;30;20063;-80
2023/02/04 12:47:26;;;;;;;3.35;0.65;;;;;;;;;;4783147;30;20504;-79
2023/02/04 12:49:55;;;;;;;4.85;0.90;;;;;;;;;;4783057;30;20059;-77
2023/02/04 12:52:28;;;;;;;4.55;1.13;;;;;;;;;;4783825;30;20131;-81
2023/02/04 12:55:03;;;;;;;3.40;0.70;;;;;;;;;;4783681;30;20058;-77
2023/02/04 12:57:34;;;;;;;5.00;0.90;;;;;;;;;;4783305;30;20066;-78
2023/02/04 13:00:06;;;;;;;6.10;0.93;;;;;;;;;;4767417;30;20047;-81
2023/02/04 13:02:36;;;;;;;4.88;1.10;;;;;;;;;;4783209;30;20507;-80
2023/02/04 13:05:08;;;;;;;7.18;1.00;;;;;;;;;;4766815;30;20059;-78
2023/02/04 13:07:39;;;;;;;6.63;0.85;;;;;;;;;;4783405;30;20530;-77
2023/02/04 13:10:11;;;;;;;2.58;0.80;;;;;;;;;;4783256;30;20047;-77
2023/02/04 13:12:42;;;;;;;3.55;0.80;;;;;;;;;;4783041;30;20051;-79
2023/02/04 13:15:13;;;;;;;5.63;1.17;;;;;;;;;;4766276;30;20059;-78
2023/02/04 13:17:43;;;;;;;5.20;0.75;;;;;;;;;;4783290;30;20069;-77
2023/02/04 13:20:13;;;;;;;5.25;0.90;;;;;;;;;;4783299;30;20056;-78
2023/02/04 13:22:43;;;;;;;3.17;1.00;;;;;;;;;;4782848;30;20511;-77
2023/02/04 13:25:15;;;;;;;9.40;1.08;;;;;;;;;;4782705;30;20078;-77
2023/02/04 13:27:45;;;;;;;5.13;0.90;;;;;;;;;;4782737;30;20051;-78
2023/02/04 13:30:15;;;;;;;4.45;0.88;;;;;;;;;;4782781;30;20059;-78
2023/02/04 13:32:46;;;;;;;4.60;1.15;;;;;;;;;;4783076;30;20055;-79
2023/02/04 13:35:18;;;;;;;3.47;0.75;;;;;;;;;;4783448;30;20059;-78
2023/02/04 13:37:49;;;;;;;3.55;0.82;;;;;;;;;;4782657;30;20051;-77
2023/02/04 13:40:20;;;;;;;4.25;0.70;;;;;;;;;;4782557;30;20067;-77
2023/02/04 13:42:50;;;;;;;3.72;0.70;;;;;;;;;;4782884;30;20047;-79
2023/02/04 13:45:20;;;;;;;3.17;0.70;;;;;;;;;;4782064;30;20051;-78
2023/02/04 13:47:51;;;;;;;5.20;1.40;;;;;;;;;;4783206;30;20051;-79
2023/02/04 13:50:22;;;;;;;5.60;0.95;;;;;;;;;;4782531;30;20055;-77
2023/02/04 13:52:52;;;;;;;3.38;0.70;;;;;;;;;;4782293;30;20047;-80
2023/02/04 13:55:23;;;;;;;3.67;0.70;;;;;;;;;;4766130;30;20066;-77
2023/02/04 13:57:55;;;;;;;3.25;0.80;;;;;;;;;;4782497;30;20059;-78
2023/02/04 14:00:25;;;;;;;4.32;0.90;;;;;;;;;;4781737;30;20061;-76
2023/02/04 14:02:55;;;;;;;2.55;0.70;;;;;;;;;;4782507;30;20047;-77
2023/02/04 14:05:26;;;;;;;2.45;0.63;;;;;;;;;;4782218;30;20499;-79
2023/02/04 14:07:56;;;;;;;3.42;0.55;;;;;;;;;;4782033;30;20062;-79
2023/02/04 14:10:27;;;;;;;3.53;1.00;;;;;;;;;;4782274;30;20063;-78
2023/02/04 14:12:58;;;;;;;3.20;1.00;;;;;;;;;;4781820;30;20546;-79
2023/02/04 14:15:29;;;;;;;2.10;0.65;;;;;;;;;;4765665;30;20523;-78
2023/02/04 14:18:01;;;;;;;4.57;0.85;;;;;;;;;;4781875;30;20515;-76
2023/02/04 14:20:31;;;;;;;3.25;0.80;;;;;;;;;;4781707;30;20428;-79
2023/02/04 14:23:03;;;;;;;2.33;0.60;;;;;;;;;;4781802;30;20051;-77
2023/02/04 14:25:34;;;;;;;1.42;0.50;;;;;;;;;;4781745;30;20051;-80
2023/02/04 14:28:04;;;;;;;7.95;1.65;;;;;;;;;;4781844;30;20062;-77
2023/02/04 14:30:36;;;;;;;4.85;1.52;;;;;;;;;;4782274;30;20055;-77
2023/02/04 14:33:08;;;;;;;2.88;0.70;;;;;;;;;;4781851;30;20051;-77
2023/02/04 14:35:38;;;;;;;3.88;0.85;;;;;;;;;;4781009;30;20757;-76
2023/02/04 14:38:10;;;;;;;3.92;0.80;;;;;;;;;;4781441;30;20055;-77
2023/02/04 14:40:42;;;;;;;0.98;0.63;;;;;;;;;;4781799;30;20074;-77
2023/02/04 14:43:13;;;;;;;2.17;0.57;;;;;;;;;;4765064;30;20055;-78
2023/02/04 14:45:43;;;;;;;1.33;0.35;;;;;;;;;;4781473;30;20059;-75
2023/02/04 14:48:14;;;;;;;4.55;0.57;;;;;;;;;;4782291;30;20055;-77
2023/02/04 14:50:45;;;;;;;1.58;0.50;;;;;;;;;;4781737;30;20055;-76
2023/02/04 14:53:15;;;;;;;2.00;0.85;;;;;;;;;;4782211;30;20055;-76
2023/02/04 14:55:46;;;;;;;1.88;0.80;;;;;;;;;;4782301;29;20071;-77
2023/02/04 14:58:17;;;;;;;2.83;0.70;;;;;;;;;;4785543;30;20625;-78
2023/02/04 15:00:48;;;;;;;4.03;0.82;;;;;;;;;;4785348;30;20055;-78
2023/02/04 15:03:19;;;;;;;2.40;0.60;;;;;;;;;;4785174;30;20416;-77
2023/02/04 15:05:49;;;;;;;2.63;0.80;;;;;;;;;;4785466;30;20512;-75
2023/02/04 15:08:20;;;;;;;5.90;0.70;;;;;;;;;;4784885;30;20066;-75
2023/02/04 15:10:51;;;;;;;0.90;0.45;;;;;;;;;;4785394;30;20086;-77